Strona główna
METAR-TAF:

METAR-TAF

Lotnisko :

Port lotniczy Krabi

Krabi, Tajlandia

Szerokość geograficzna: 08-06-03N, Długość geograficzna: 098-59-05E, wysokość: 25 m

Aktualna obserwacja pogody

Raport powstał 19 minut temu, godzina 10:00 UTC
Wiatr 9 kt od wschodnio-południowy wschód, zmienny między wschód i południowy wschód
Temperatura 32°C
Wilgotność 59%
Ciśnienie 1009 hPa
Widzialność 10 km lub więcej
Mało chmury na wysokości 2000 ft

METAR: VTSG 181000Z 11009KT 080V140 9999 FEW020 32/23 Q1009 NOSIG

czas: 17:19 (10:19 UTC)

Prognoza

Raport powstał 5 godziny i 19 minut temu, godzina 05:00 UTC
Prognoza ważna od 18 godzina 06 UTC do 19 godzina 06 UTC
Wiatr 8 kt od wschód
Widzialność 10 km lub więcej
Mało chmury na wysokości 2000 ft
Stopniowe zmiany
od 18 godzina 20 UTC do 18 godzina 22 UTC
Widzialność: 5000 m
zamglenie
Stopniowe zmiany
od 19 godzina 00 UTC do 19 godzina 02 UTC
Widzialność 10 km lub więcej

TAF: VTSG 180500Z 1806/1906 08008KT 9999 FEW020 BECMG 1820/1822 5000 BR BECMG 1900/1902 9999 NSW

Obserwacja i prognoza pogody dla ponad 4000 lotnisk (raport METAR i TAF).

Dostępne stacje oznaczono żółtymi i czerwonymi punktami na mapie.

Najedź kursorem aby zobaczyć nazwę stacji.

Kliknij aby zobaczyć obserwacje i prognozy pogody.

Aby zmienić mapę: kliknij na zielony przycisk z czarnym krzyżykiem, aby powiększyć; na zielony przycisk z myślnikiem, aby pomniejszyć; na zielone strzałki, aby przejść do map sąsiednich.


METAR-TAF: